sensor_id;sensor_type;location;lat;lon;timestamp;pressure;altitude;pressure_sealevel;temperature
74539;BMP180;66042;51.090;-115.340;2024-03-22T00:00:03;86601.40;;;-0.80
74539;BMP180;66042;51.090;-115.340;2024-03-22T00:02:31;86602.20;;;-0.80
74539;BMP180;66042;51.090;-115.340;2024-03-22T00:04:58;86609.00;;;-0.90
74539;BMP180;66042;51.090;-115.340;2024-03-22T00:07:25;86612.00;;;-0.90
74539;BMP180;66042;51.090;-115.340;2024-03-22T00:09:52;86617.40;;;-0.90
74539;BMP180;66042;51.090;-115.340;2024-03-22T00:12:19;86619.60;;;-0.90
74539;BMP180;66042;51.090;-115.340;2024-03-22T00:14:46;86624.00;;;-0.90
74539;BMP180;66042;51.090;-115.340;2024-03-22T00:17:12;86628.80;;;-0.90
74539;BMP180;66042;51.090;-115.340;2024-03-22T00:19:40;86630.00;;;-0.90
74539;BMP180;66042;51.090;-115.340;2024-03-22T00:22:08;86636.40;;;-0.90
74539;BMP180;66042;51.090;-115.340;2024-03-22T00:24:35;86640.60;;;-0.90
74539;BMP180;66042;51.090;-115.340;2024-03-22T00:27:02;86638.60;;;-1.00
74539;BMP180;66042;51.090;-115.340;2024-03-22T00:29:28;86641.40;;;-1.00
74539;BMP180;66042;51.090;-115.340;2024-03-22T00:31:59;86639.40;;;-1.00
74539;BMP180;66042;51.090;-115.340;2024-03-22T00:34:27;86644.80;;;-1.00
74539;BMP180;66042;51.090;-115.340;2024-03-22T00:36:54;86656.80;;;-1.00
74539;BMP180;66042;51.090;-115.340;2024-03-22T00:39:21;86660.00;;;-1.00
74539;BMP180;66042;51.090;-115.340;2024-03-22T00:41:48;86662.40;;;-1.00
74539;BMP180;66042;51.090;-115.340;2024-03-22T00:44:15;86663.20;;;-1.00
74539;BMP180;66042;51.090;-115.340;2024-03-22T00:46:42;86669.80;;;-1.04
74539;BMP180;66042;51.090;-115.340;2024-03-22T00:49:09;86667.60;;;-1.10
74539;BMP180;66042;51.090;-115.340;2024-03-22T00:51:35;86669.00;;;-1.10
74539;BMP180;66042;51.090;-115.340;2024-03-22T00:54:03;86674.00;;;-1.20
74539;BMP180;66042;51.090;-115.340;2024-03-22T00:56:29;86677.60;;;-1.26
74539;BMP180;66042;51.090;-115.340;2024-03-22T00:58:56;86687.40;;;-1.30
74539;BMP180;66042;51.090;-115.340;2024-03-22T01:01:23;86691.60;;;-1.30
74539;BMP180;66042;51.090;-115.340;2024-03-22T01:03:50;86696.40;;;-1.40
74539;BMP180;66042;51.090;-115.340;2024-03-22T01:06:17;86696.80;;;-1.40
74539;BMP180;66042;51.090;-115.340;2024-03-22T01:08:50;86698.40;;;-1.50
74539;BMP180;66042;51.090;-115.340;2024-03-22T01:11:18;86710.60;;;-1.50
74539;BMP180;66042;51.090;-115.340;2024-03-22T01:13:45;86718.80;;;-1.60
74539;BMP180;66042;51.090;-115.340;2024-03-22T01:16:12;86726.80;;;-1.60
74539;BMP180;66042;51.090;-115.340;2024-03-22T01:18:39;86734.00;;;-1.60
74539;BMP180;66042;51.090;-115.340;2024-03-22T01:21:06;86731.40;;;-1.64
74539;BMP180;66042;51.090;-115.340;2024-03-22T01:23:34;86734.40;;;-1.70
74539;BMP180;66042;51.090;-115.340;2024-03-22T01:26:01;86735.80;;;-1.70
74539;BMP180;66042;51.090;-115.340;2024-03-22T01:28:28;86735.00;;;-1.70
74539;BMP180;66042;51.090;-115.340;2024-03-22T01:30:55;86736.00;;;-1.80
74539;BMP180;66042;51.090;-115.340;2024-03-22T01:33:22;86739.20;;;-1.80
74539;BMP180;66042;51.090;-115.340;2024-03-22T01:35:49;86744.80;;;-1.80
74539;BMP180;66042;51.090;-115.340;2024-03-22T01:38:16;86752.60;;;-1.80
74539;BMP180;66042;51.090;-115.340;2024-03-22T01:40:43;86754.60;;;-1.80
74539;BMP180;66042;51.090;-115.340;2024-03-22T01:43:10;86753.00;;;-1.80
74539;BMP180;66042;51.090;-115.340;2024-03-22T01:45:37;86756.20;;;-1.84
74539;BMP180;66042;51.090;-115.340;2024-03-22T01:48:04;86765.20;;;-1.90
74539;BMP180;66042;51.090;-115.340;2024-03-22T01:50:33;86771.20;;;-1.90
74539;BMP180;66042;51.090;-115.340;2024-03-22T01:53:01;86780.40;;;-1.94
74539;BMP180;66042;51.090;-115.340;2024-03-22T01:55:28;86784.00;;;-2.00
74539;BMP180;66042;51.090;-115.340;2024-03-22T01:57:56;86784.20;;;-2.02
74539;BMP180;66042;51.090;-115.340;2024-03-22T02:00:24;86784.80;;;-2.10
74539;BMP180;66042;51.090;-115.340;2024-03-22T02:02:51;86777.60;;;-2.16
74539;BMP180;66042;51.090;-115.340;2024-03-22T02:05:19;86782.80;;;-2.20
74539;BMP180;66042;51.090;-115.340;2024-03-22T02:07:47;86790.40;;;-2.20
74539;BMP180;66042;51.090;-115.340;2024-03-22T02:10:14;86788.40;;;-2.30
74539;BMP180;66042;51.090;-115.340;2024-03-22T02:12:42;86793.80;;;-2.30
74539;BMP180;66042;51.090;-115.340;2024-03-22T02:15:09;86791.80;;;-2.40
74539;BMP180;66042;51.090;-115.340;2024-03-22T02:17:37;86795.40;;;-2.40
74539;BMP180;66042;51.090;-115.340;2024-03-22T02:20:04;86796.80;;;-2.50
74539;BMP180;66042;51.090;-115.340;2024-03-22T02:22:31;86795.80;;;-2.60
74539;BMP180;66042;51.090;-115.340;2024-03-22T02:24:59;86796.80;;;-2.60
74539;BMP180;66042;51.090;-115.340;2024-03-22T02:27:26;86796.00;;;-2.68
74539;BMP180;66042;51.090;-115.340;2024-03-22T02:29:53;86805.80;;;-2.70
74539;BMP180;66042;51.090;-115.340;2024-03-22T02:32:23;86811.20;;;-2.70
74539;BMP180;66042;51.090;-115.340;2024-03-22T02:34:50;86811.00;;;-2.74
74539;BMP180;66042;51.090;-115.340;2024-03-22T02:37:17;86819.60;;;-2.74
74539;BMP180;66042;51.090;-115.340;2024-03-22T02:39:44;86824.60;;;-2.80
74539;BMP180;66042;51.090;-115.340;2024-03-22T02:42:11;86827.60;;;-2.80
74539;BMP180;66042;51.090;-115.340;2024-03-22T02:44:39;86830.00;;;-2.80
74539;BMP180;66042;51.090;-115.340;2024-03-22T02:47:10;86833.80;;;-2.90
74539;BMP180;66042;51.090;-115.340;2024-03-22T02:49:40;86839.20;;;-2.90
74539;BMP180;66042;51.090;-115.340;2024-03-22T02:52:06;86842.40;;;-2.90
74539;BMP180;66042;51.090;-115.340;2024-03-22T02:54:34;86844.80;;;-2.90
74539;BMP180;66042;51.090;-115.340;2024-03-22T02:57:00;86852.80;;;-2.92
74539;BMP180;66042;51.090;-115.340;2024-03-22T02:59:29;86854.00;;;-2.98
74539;BMP180;66042;51.090;-115.340;2024-03-22T03:01:56;86855.00;;;-2.98
74539;BMP180;66042;51.090;-115.340;2024-03-22T03:04:23;86861.00;;;-3.00
74539;BMP180;66042;51.090;-115.340;2024-03-22T03:06:50;86863.00;;;-3.00
74539;BMP180;66042;51.090;-115.340;2024-03-22T03:09:17;86869.20;;;-3.08
74539;BMP180;66042;51.090;-115.340;2024-03-22T03:11:44;86870.20;;;-3.10
74539;BMP180;66042;51.090;-115.340;2024-03-22T03:14:11;86875.40;;;-3.10
74539;BMP180;66042;51.090;-115.340;2024-03-22T03:16:40;86873.40;;;-3.14
74539;BMP180;66042;51.090;-115.340;2024-03-22T03:19:07;86879.20;;;-3.20
74539;BMP180;66042;51.090;-115.340;2024-03-22T03:21:34;86879.60;;;-3.20
74539;BMP180;66042;51.090;-115.340;2024-03-22T03:24:01;86882.20;;;-3.20
74539;BMP180;66042;51.090;-115.340;2024-03-22T03:26:28;86879.40;;;-3.20
74539;BMP180;66042;51.090;-115.340;2024-03-22T03:28:55;86876.40;;;-3.30
74539;BMP180;66042;51.090;-115.340;2024-03-22T03:31:22;86879.40;;;-3.30
74539;BMP180;66042;51.090;-115.340;2024-03-22T03:33:49;86878.40;;;-3.30
74539;BMP180;66042;51.090;-115.340;2024-03-22T03:36:17;86882.00;;;-3.30
74539;BMP180;66042;51.090;-115.340;2024-03-22T03:38:44;86881.40;;;-3.30
74539;BMP180;66042;51.090;-115.340;2024-03-22T03:41:11;86885.00;;;-3.30
74539;BMP180;66042;51.090;-115.340;2024-03-22T03:43:38;86883.80;;;-3.30
74539;BMP180;66042;51.090;-115.340;2024-03-22T03:46:06;86883.40;;;-3.30
74539;BMP180;66042;51.090;-115.340;2024-03-22T03:48:33;86889.60;;;-3.28
74539;BMP180;66042;51.090;-115.340;2024-03-22T03:51:00;86893.00;;;-3.30
74539;BMP180;66042;51.090;-115.340;2024-03-22T03:53:30;86894.20;;;-3.30
74539;BMP180;66042;51.090;-115.340;2024-03-22T03:55:57;86901.80;;;-3.30
74539;BMP180;66042;51.090;-115.340;2024-03-22T03:58:24;86900.80;;;-3.30
74539;BMP180;66042;51.090;-115.340;2024-03-22T04:00:55;86901.60;;;-3.26
74539;BMP180;66042;51.090;-115.340;2024-03-22T04:03:22;86899.40;;;-3.28
74539;BMP180;66042;51.090;-115.340;2024-03-22T04:06:13;86900.40;;;-3.26
74539;BMP180;66042;51.090;-115.340;2024-03-22T04:08:40;86902.80;;;-3.30
74539;BMP180;66042;51.090;-115.340;2024-03-22T04:11:08;86908.80;;;-3.30
74539;BMP180;66042;51.090;-115.340;2024-03-22T04:13:35;86913.00;;;-3.30
74539;BMP180;66042;51.090;-115.340;2024-03-22T04:16:02;86914.00;;;-3.40
74539;BMP180;66042;51.090;-115.340;2024-03-22T04:18:30;86912.60;;;-3.40
74539;BMP180;66042;51.090;-115.340;2024-03-22T04:20:59;86914.40;;;-3.40
74539;BMP180;66042;51.090;-115.340;2024-03-22T04:23:26;86915.80;;;-3.50
74539;BMP180;66042;51.090;-115.340;2024-03-22T04:25:58;86915.00;;;-3.48
74539;BMP180;66042;51.090;-115.340;2024-03-22T04:28:29;86920.80;;;-3.50
74539;BMP180;66042;51.090;-115.340;2024-03-22T04:30:59;86926.40;;;-3.50
74539;BMP180;66042;51.090;-115.340;2024-03-22T04:33:27;86930.00;;;-3.56
74539;BMP180;66042;51.090;-115.340;2024-03-22T04:35:56;86933.20;;;-3.60
74539;BMP180;66042;51.090;-115.340;2024-03-22T04:38:24;86932.00;;;-3.60
74539;BMP180;66042;51.090;-115.340;2024-03-22T04:40:52;86931.80;;;-3.60
74539;BMP180;66042;51.090;-115.340;2024-03-22T04:43:20;86935.80;;;-3.62
74539;BMP180;66042;51.090;-115.340;2024-03-22T04:45:48;86938.00;;;-3.60
74539;BMP180;66042;51.090;-115.340;2024-03-22T04:48:19;86939.20;;;-3.70
74539;BMP180;66042;51.090;-115.340;2024-03-22T04:50:50;86937.20;;;-3.70
74539;BMP180;66042;51.090;-115.340;2024-03-22T04:53:19;86933.00;;;-3.70
74539;BMP180;66042;51.090;-115.340;2024-03-22T04:55:48;86932.80;;;-3.70
74539;BMP180;66042;51.090;-115.340;2024-03-22T04:58:18;86929.40;;;-3.70
74539;BMP180;66042;51.090;-115.340;2024-03-22T05:00:48;86922.40;;;-3.70
74539;BMP180;66042;51.090;-115.340;2024-03-22T05:03:16;86925.40;;;-3.72
74539;BMP180;66042;51.090;-115.340;2024-03-22T05:05:43;86930.40;;;-3.80
74539;BMP180;66042;51.090;-115.340;2024-03-22T05:08:10;86933.60;;;-3.80
74539;BMP180;66042;51.090;-115.340;2024-03-22T05:10:39;86936.00;;;-3.80
74539;BMP180;66042;51.090;-115.340;2024-03-22T05:13:05;86938.00;;;-3.80
74539;BMP180;66042;51.090;-115.340;2024-03-22T05:15:32;86936.20;;;-3.88
74539;BMP180;66042;51.090;-115.340;2024-03-22T05:18:00;86940.40;;;-3.90
74539;BMP180;66042;51.090;-115.340;2024-03-22T05:20:27;86946.00;;;-3.90
74539;BMP180;66042;51.090;-115.340;2024-03-22T05:22:54;86945.20;;;-3.80
74539;BMP180;66042;51.090;-115.340;2024-03-22T05:25:21;86940.40;;;-3.80
74539;BMP180;66042;51.090;-115.340;2024-03-22T05:27:48;86942.60;;;-3.80
74539;BMP180;66042;51.090;-115.340;2024-03-22T05:30:15;86938.20;;;-3.80
74539;BMP180;66042;51.090;-115.340;2024-03-22T05:32:42;86936.40;;;-3.78
74539;BMP180;66042;51.090;-115.340;2024-03-22T05:35:09;86940.60;;;-3.70
74539;BMP180;66042;51.090;-115.340;2024-03-22T05:37:36;86939.40;;;-3.70
74539;BMP180;66042;51.090;-115.340;2024-03-22T05:40:04;86943.80;;;-3.70
74539;BMP180;66042;51.090;-115.340;2024-03-22T05:42:31;86941.00;;;-3.70
74539;BMP180;66042;51.090;-115.340;2024-03-22T05:44:58;86943.40;;;-3.70
74539;BMP180;66042;51.090;-115.340;2024-03-22T05:47:25;86946.20;;;-3.70
74539;BMP180;66042;51.090;-115.340;2024-03-22T05:49:52;86941.60;;;-3.70
74539;BMP180;66042;51.090;-115.340;2024-03-22T05:52:19;86938.20;;;-3.70
74539;BMP180;66042;51.090;-115.340;2024-03-22T05:54:47;86936.60;;;-3.70
74539;BMP180;66042;51.090;-115.340;2024-03-22T05:57:14;86929.20;;;-3.70
74539;BMP180;66042;51.090;-115.340;2024-03-22T05:59:42;86931.00;;;-3.70
74539;BMP180;66042;51.090;-115.340;2024-03-22T06:02:09;86932.00;;;-3.70
74539;BMP180;66042;51.090;-115.340;2024-03-22T06:04:36;86932.40;;;-3.76
74539;BMP180;66042;51.090;-115.340;2024-03-22T06:07:03;86929.80;;;-3.80
74539;BMP180;66042;51.090;-115.340;2024-03-22T06:09:32;86930.20;;;-3.80
74539;BMP180;66042;51.090;-115.340;2024-03-22T06:12:25;86936.60;;;-3.80
74539;BMP180;66042;51.090;-115.340;2024-03-22T06:14:52;86933.00;;;-3.80
74539;BMP180;66042;51.090;-115.340;2024-03-22T06:17:19;86929.20;;;-3.88
74539;BMP180;66042;51.090;-115.340;2024-03-22T06:19:46;86929.60;;;-3.90
74539;BMP180;66042;51.090;-115.340;2024-03-22T06:22:13;86931.20;;;-3.90
74539;BMP180;66042;51.090;-115.340;2024-03-22T06:24:40;86924.20;;;-3.90
74539;BMP180;66042;51.090;-115.340;2024-03-22T06:27:07;86921.20;;;-3.90
74539;BMP180;66042;51.090;-115.340;2024-03-22T06:29:34;86925.80;;;-4.00
74539;BMP180;66042;51.090;-115.340;2024-03-22T06:32:02;86925.20;;;-4.00
74539;BMP180;66042;51.090;-115.340;2024-03-22T06:34:29;86923.20;;;-4.00
74539;BMP180;66042;51.090;-115.340;2024-03-22T06:36:56;86927.40;;;-4.00
74539;BMP180;66042;51.090;-115.340;2024-03-22T06:39:24;86931.80;;;-4.00
74539;BMP180;66042;51.090;-115.340;2024-03-22T06:41:51;86931.40;;;-4.00
74539;BMP180;66042;51.090;-115.340;2024-03-22T06:44:17;86934.80;;;-4.00
74539;BMP180;66042;51.090;-115.340;2024-03-22T06:46:45;86943.80;;;-4.00
74539;BMP180;66042;51.090;-115.340;2024-03-22T06:49:11;86942.60;;;-4.02
74539;BMP180;66042;51.090;-115.340;2024-03-22T06:51:39;86939.60;;;-4.10
74539;BMP180;66042;51.090;-115.340;2024-03-22T06:54:06;86935.00;;;-4.10
74539;BMP180;66042;51.090;-115.340;2024-03-22T06:56:33;86936.00;;;-4.10
74539;BMP180;66042;51.090;-115.340;2024-03-22T06:59:00;86936.20;;;-4.10
74539;BMP180;66042;51.090;-115.340;2024-03-22T07:01:27;86934.40;;;-4.10
74539;BMP180;66042;51.090;-115.340;2024-03-22T07:03:54;86934.80;;;-4.16
74539;BMP180;66042;51.090;-115.340;2024-03-22T07:06:21;86931.60;;;-4.20
74539;BMP180;66042;51.090;-115.340;2024-03-22T07:08:48;86931.20;;;-4.20
74539;BMP180;66042;51.090;-115.340;2024-03-22T07:11:15;86935.00;;;-4.20
74539;BMP180;66042;51.090;-115.340;2024-03-22T07:13:42;86935.00;;;-4.20
74539;BMP180;66042;51.090;-115.340;2024-03-22T07:16:09;86940.20;;;-4.14
74539;BMP180;66042;51.090;-115.340;2024-03-22T07:18:36;86936.00;;;-4.14
74539;BMP180;66042;51.090;-115.340;2024-03-22T07:21:03;86930.20;;;-4.10
74539;BMP180;66042;51.090;-115.340;2024-03-22T07:23:30;86930.40;;;-4.10
74539;BMP180;66042;51.090;-115.340;2024-03-22T07:25:57;86929.60;;;-4.10
74539;BMP180;66042;51.090;-115.340;2024-03-22T07:28:26;86931.20;;;-4.10
74539;BMP180;66042;51.090;-115.340;2024-03-22T07:30:53;86927.40;;;-4.10
74539;BMP180;66042;51.090;-115.340;2024-03-22T07:33:21;86928.60;;;-4.06
74539;BMP180;66042;51.090;-115.340;2024-03-22T07:35:48;86933.60;;;-4.02
74539;BMP180;66042;51.090;-115.340;2024-03-22T07:38:15;86930.00;;;-4.04
74539;BMP180;66042;51.090;-115.340;2024-03-22T07:40:42;86926.80;;;-4.08
74539;BMP180;66042;51.090;-115.340;2024-03-22T07:43:10;86927.80;;;-4.10
74539;BMP180;66042;51.090;-115.340;2024-03-22T07:45:38;86926.40;;;-4.10
74539;BMP180;66042;51.090;-115.340;2024-03-22T07:48:05;86922.00;;;-4.14
74539;BMP180;66042;51.090;-115.340;2024-03-22T07:50:32;86927.80;;;-4.16
74539;BMP180;66042;51.090;-115.340;2024-03-22T07:52:59;86929.20;;;-4.10
74539;BMP180;66042;51.090;-115.340;2024-03-22T07:55:26;86927.80;;;-4.10
74539;BMP180;66042;51.090;-115.340;2024-03-22T07:57:53;86931.20;;;-4.10
74539;BMP180;66042;51.090;-115.340;2024-03-22T08:00:20;86929.00;;;-4.10
74539;BMP180;66042;51.090;-115.340;2024-03-22T08:02:47;86929.60;;;-4.20
74539;BMP180;66042;51.090;-115.340;2024-03-22T08:05:15;86927.00;;;-4.20
74539;BMP180;66042;51.090;-115.340;2024-03-22T08:07:42;86932.00;;;-4.20
74539;BMP180;66042;51.090;-115.340;2024-03-22T08:10:10;86932.00;;;-4.20
74539;BMP180;66042;51.090;-115.340;2024-03-22T08:12:37;86926.40;;;-4.24
74539;BMP180;66042;51.090;-115.340;2024-03-22T08:15:05;86923.80;;;-4.30
74539;BMP180;66042;51.090;-115.340;2024-03-22T08:17:32;86922.20;;;-4.30
74539;BMP180;66042;51.090;-115.340;2024-03-22T08:19:59;86923.20;;;-4.30
74539;BMP180;66042;51.090;-115.340;2024-03-22T08:22:26;86922.00;;;-4.40
74539;BMP180;66042;51.090;-115.340;2024-03-22T08:24:53;86930.00;;;-4.40
74539;BMP180;66042;51.090;-115.340;2024-03-22T08:27:22;86926.40;;;-4.40
74539;BMP180;66042;51.090;-115.340;2024-03-22T08:29:49;86925.80;;;-4.40
74539;BMP180;66042;51.090;-115.340;2024-03-22T08:32:16;86928.80;;;-4.54
74539;BMP180;66042;51.090;-115.340;2024-03-22T08:34:43;86927.60;;;-4.60
74539;BMP180;66042;51.090;-115.340;2024-03-22T08:37:11;86929.00;;;-4.64
74539;BMP180;66042;51.090;-115.340;2024-03-22T08:39:38;86923.40;;;-4.60
74539;BMP180;66042;51.090;-115.340;2024-03-22T08:42:05;86929.00;;;-4.50
74539;BMP180;66042;51.090;-115.340;2024-03-22T08:44:32;86928.60;;;-4.50
74539;BMP180;66042;51.090;-115.340;2024-03-22T08:46:59;86920.80;;;-4.50
74539;BMP180;66042;51.090;-115.340;2024-03-22T08:49:26;86922.40;;;-4.40
74539;BMP180;66042;51.090;-115.340;2024-03-22T08:51:53;86920.20;;;-4.40
74539;BMP180;66042;51.090;-115.340;2024-03-22T08:54:20;86921.80;;;-4.40
74539;BMP180;66042;51.090;-115.340;2024-03-22T08:56:47;86916.60;;;-4.40
74539;BMP180;66042;51.090;-115.340;2024-03-22T08:59:14;86915.80;;;-4.50
74539;BMP180;66042;51.090;-115.340;2024-03-22T09:01:41;86922.00;;;-4.48
74539;BMP180;66042;51.090;-115.340;2024-03-22T09:04:08;86916.00;;;-4.44
74539;BMP180;66042;51.090;-115.340;2024-03-22T09:06:35;86915.00;;;-4.40
74539;BMP180;66042;51.090;-115.340;2024-03-22T09:09:02;86912.20;;;-4.40
74539;BMP180;66042;51.090;-115.340;2024-03-22T09:11:31;86916.20;;;-4.40
74539;BMP180;66042;51.090;-115.340;2024-03-22T09:13:58;86918.40;;;-4.34
74539;BMP180;66042;51.090;-115.340;2024-03-22T09:16:25;86918.00;;;-4.40
74539;BMP180;66042;51.090;-115.340;2024-03-22T09:18:53;86912.80;;;-4.38
74539;BMP180;66042;51.090;-115.340;2024-03-22T09:21:21;86907.40;;;-4.30
74539;BMP180;66042;51.090;-115.340;2024-03-22T09:23:48;86911.00;;;-4.30
74539;BMP180;66042;51.090;-115.340;2024-03-22T09:26:15;86914.40;;;-4.30
74539;BMP180;66042;51.090;-115.340;2024-03-22T09:28:42;86910.80;;;-4.30
74539;BMP180;66042;51.090;-115.340;2024-03-22T09:31:09;86909.60;;;-4.30
74539;BMP180;66042;51.090;-115.340;2024-03-22T09:33:36;86908.20;;;-4.30
74539;BMP180;66042;51.090;-115.340;2024-03-22T09:36:03;86911.40;;;-4.30
74539;BMP180;66042;51.090;-115.340;2024-03-22T09:38:31;86910.20;;;-4.30
74539;BMP180;66042;51.090;-115.340;2024-03-22T09:40:58;86906.00;;;-4.30
74539;BMP180;66042;51.090;-115.340;2024-03-22T09:43:27;86908.00;;;-4.30
74539;BMP180;66042;51.090;-115.340;2024-03-22T09:45:55;86914.60;;;-4.30
74539;BMP180;66042;51.090;-115.340;2024-03-22T09:48:24;86904.00;;;-4.30
74539;BMP180;66042;51.090;-115.340;2024-03-22T09:50:52;86903.40;;;-4.30
74539;BMP180;66042;51.090;-115.340;2024-03-22T09:53:20;86901.80;;;-4.30
74539;BMP180;66042;51.090;-115.340;2024-03-22T09:55:53;86901.60;;;-4.30
74539;BMP180;66042;51.090;-115.340;2024-03-22T09:58:25;86898.00;;;-4.30
74539;BMP180;66042;51.090;-115.340;2024-03-22T10:00:52;86897.20;;;-4.30
74539;BMP180;66042;51.090;-115.340;2024-03-22T10:03:22;86900.20;;;-4.30
74539;BMP180;66042;51.090;-115.340;2024-03-22T10:05:49;86900.00;;;-4.30
74539;BMP180;66042;51.090;-115.340;2024-03-22T10:08:16;86898.60;;;-4.30
74539;BMP180;66042;51.090;-115.340;2024-03-22T10:10:43;86896.60;;;-4.30
74539;BMP180;66042;51.090;-115.340;2024-03-22T10:13:10;86901.00;;;-4.20
74539;BMP180;66042;51.090;-115.340;2024-03-22T10:15:38;86896.20;;;-4.20
74539;BMP180;66042;51.090;-115.340;2024-03-22T10:18:05;86898.60;;;-4.20
74539;BMP180;66042;51.090;-115.340;2024-03-22T10:20:32;86894.40;;;-4.20
74539;BMP180;66042;51.090;-115.340;2024-03-22T10:22:59;86891.40;;;-4.20
74539;BMP180;66042;51.090;-115.340;2024-03-22T10:25:27;86890.40;;;-4.20
74539;BMP180;66042;51.090;-115.340;2024-03-22T10:27:56;86883.20;;;-4.20
74539;BMP180;66042;51.090;-115.340;2024-03-22T10:30:24;86879.60;;;-4.20
74539;BMP180;66042;51.090;-115.340;2024-03-22T10:32:51;86879.40;;;-4.30
74539;BMP180;66042;51.090;-115.340;2024-03-22T10:35:18;86871.00;;;-4.30
74539;BMP180;66042;51.090;-115.340;2024-03-22T10:37:46;86872.80;;;-4.30
74539;BMP180;66042;51.090;-115.340;2024-03-22T10:40:13;86870.20;;;-4.30
74539;BMP180;66042;51.090;-115.340;2024-03-22T10:42:42;86869.20;;;-4.30
74539;BMP180;66042;51.090;-115.340;2024-03-22T10:45:12;86872.20;;;-4.30
74539;BMP180;66042;51.090;-115.340;2024-03-22T10:47:40;86867.60;;;-4.38
74539;BMP180;66042;51.090;-115.340;2024-03-22T10:50:10;86870.80;;;-4.40
74539;BMP180;66042;51.090;-115.340;2024-03-22T10:53:18;86866.20;;;-4.40
74539;BMP180;66042;51.090;-115.340;2024-03-22T10:55:42;86864.00;;;-4.40
74539;BMP180;66042;51.090;-115.340;2024-03-22T10:58:22;86864.60;;;-4.40
74539;BMP180;66042;51.090;-115.340;2024-03-22T11:00:54;86866.80;;;-4.46
74539;BMP180;66042;51.090;-115.340;2024-03-22T11:03:23;86871.60;;;-4.50
74539;BMP180;66042;51.090;-115.340;2024-03-22T11:05:56;86867.00;;;-4.50
74539;BMP180;66042;51.090;-115.340;2024-03-22T11:08:27;86861.00;;;-4.50
74539;BMP180;66042;51.090;-115.340;2024-03-22T11:10:57;86859.60;;;-4.50
74539;BMP180;66042;51.090;-115.340;2024-03-22T11:13:24;86863.60;;;-4.50
74539;BMP180;66042;51.090;-115.340;2024-03-22T11:15:51;86862.60;;;-4.50
74539;BMP180;66042;51.090;-115.340;2024-03-22T11:18:19;86866.40;;;-4.50
74539;BMP180;66042;51.090;-115.340;2024-03-22T11:20:46;86865.80;;;-4.50
74539;BMP180;66042;51.090;-115.340;2024-03-22T11:23:13;86863.20;;;-4.50
74539;BMP180;66042;51.090;-115.340;2024-03-22T11:25:40;86863.00;;;-4.50
74539;BMP180;66042;51.090;-115.340;2024-03-22T11:28:07;86867.80;;;-4.50
74539;BMP180;66042;51.090;-115.340;2024-03-22T11:30:35;86865.20;;;-4.40
74539;BMP180;66042;51.090;-115.340;2024-03-22T11:33:04;86860.80;;;-4.40
74539;BMP180;66042;51.090;-115.340;2024-03-22T11:35:34;86856.60;;;-4.40
74539;BMP180;66042;51.090;-115.340;2024-03-22T11:38:01;86859.60;;;-4.30
74539;BMP180;66042;51.090;-115.340;2024-03-22T11:40:31;86859.80;;;-4.30
74539;BMP180;66042;51.090;-115.340;2024-03-22T11:43:01;86861.20;;;-4.30
74539;BMP180;66042;51.090;-115.340;2024-03-22T11:45:29;86859.40;;;-4.30
74539;BMP180;66042;51.090;-115.340;2024-03-22T11:48:02;86861.20;;;-4.32
74539;BMP180;66042;51.090;-115.340;2024-03-22T11:50:29;86859.20;;;-4.40
74539;BMP180;66042;51.090;-115.340;2024-03-22T11:52:57;86858.00;;;-4.40
74539;BMP180;66042;51.090;-115.340;2024-03-22T11:55:27;86860.00;;;-4.40
74539;BMP180;66042;51.090;-115.340;2024-03-22T11:57:57;86854.20;;;-4.40
74539;BMP180;66042;51.090;-115.340;2024-03-22T12:00:25;86851.80;;;-4.48
74539;BMP180;66042;51.090;-115.340;2024-03-22T12:02:53;86853.60;;;-4.50
74539;BMP180;66042;51.090;-115.340;2024-03-22T12:05:21;86848.00;;;-4.50
74539;BMP180;66042;51.090;-115.340;2024-03-22T12:07:50;86853.80;;;-4.50
74539;BMP180;66042;51.090;-115.340;2024-03-22T12:10:18;86849.20;;;-4.56
74539;BMP180;66042;51.090;-115.340;2024-03-22T12:12:45;86850.00;;;-4.60
74539;BMP180;66042;51.090;-115.340;2024-03-22T12:15:12;86856.60;;;-4.60
74539;BMP180;66042;51.090;-115.340;2024-03-22T12:17:39;86856.40;;;-4.60
74539;BMP180;66042;51.090;-115.340;2024-03-22T12:20:10;86853.80;;;-4.62
74539;BMP180;66042;51.090;-115.340;2024-03-22T12:22:37;86857.40;;;-4.70
74539;BMP180;66042;51.090;-115.340;2024-03-22T12:25:04;86859.40;;;-4.70
74539;BMP180;66042;51.090;-115.340;2024-03-22T12:27:32;86853.80;;;-4.70
74539;BMP180;66042;51.090;-115.340;2024-03-22T12:29:59;86856.60;;;-4.70
74539;BMP180;66042;51.090;-115.340;2024-03-22T12:32:26;86851.20;;;-4.80
74539;BMP180;66042;51.090;-115.340;2024-03-22T12:34:53;86849.60;;;-4.80
74539;BMP180;66042;51.090;-115.340;2024-03-22T12:37:20;86854.40;;;-4.80
74539;BMP180;66042;51.090;-115.340;2024-03-22T12:39:47;86853.80;;;-4.80
74539;BMP180;66042;51.090;-115.340;2024-03-22T12:42:14;86848.00;;;-4.90
74539;BMP180;66042;51.090;-115.340;2024-03-22T12:44:41;86854.40;;;-4.90
74539;BMP180;66042;51.090;-115.340;2024-03-22T12:47:08;86846.40;;;-4.90
74539;BMP180;66042;51.090;-115.340;2024-03-22T12:49:35;86851.80;;;-4.94
74539;BMP180;66042;51.090;-115.340;2024-03-22T12:52:02;86848.80;;;-5.00
74539;BMP180;66042;51.090;-115.340;2024-03-22T12:54:29;86848.40;;;-5.00
74539;BMP180;66042;51.090;-115.340;2024-03-22T12:56:57;86851.20;;;-5.06
74539;BMP180;66042;51.090;-115.340;2024-03-22T12:59:24;86852.80;;;-5.10
74539;BMP180;66042;51.090;-115.340;2024-03-22T13:01:51;86852.40;;;-5.18
74539;BMP180;66042;51.090;-115.340;2024-03-22T13:04:20;86853.00;;;-5.20
74539;BMP180;66042;51.090;-115.340;2024-03-22T13:06:47;86860.40;;;-5.20
74539;BMP180;66042;51.090;-115.340;2024-03-22T13:09:14;86856.40;;;-5.30
74539;BMP180;66042;51.090;-115.340;2024-03-22T13:11:42;86853.80;;;-5.30
74539;BMP180;66042;51.090;-115.340;2024-03-22T13:14:09;86852.60;;;-5.30
74539;BMP180;66042;51.090;-115.340;2024-03-22T13:16:36;86852.20;;;-5.30
74539;BMP180;66042;51.090;-115.340;2024-03-22T13:19:03;86842.00;;;-5.30
74539;BMP180;66042;51.090;-115.340;2024-03-22T13:21:31;86846.60;;;-5.30
74539;BMP180;66042;51.090;-115.340;2024-03-22T13:23:58;86848.80;;;-5.30
74539;BMP180;66042;51.090;-115.340;2024-03-22T13:26:25;86844.20;;;-5.30
74539;BMP180;66042;51.090;-115.340;2024-03-22T13:28:52;86838.80;;;-5.30
74539;BMP180;66042;51.090;-115.340;2024-03-22T13:31:18;86840.40;;;-5.30
74539;BMP180;66042;51.090;-115.340;2024-03-22T13:33:46;86842.20;;;-5.40